createdAt,value
2023-03-08T00:06:15.490Z,41.76
2023-03-08T00:07:15.469Z,41.41
2023-03-08T00:08:15.487Z,41.54
2023-03-08T00:09:15.452Z,41.62
2023-03-08T00:10:15.435Z,41.67
2023-03-08T00:11:15.440Z,41.66
2023-03-08T00:12:15.401Z,41.96
2023-03-08T00:13:15.391Z,42.25
2023-03-08T00:14:15.366Z,41.95
2023-03-08T00:15:15.361Z,42.01
2023-03-08T00:16:15.374Z,41.53
2023-03-08T00:17:15.330Z,41.54
2023-03-08T00:18:15.298Z,41.41
2023-03-08T00:19:15.290Z,41.19
2023-03-08T00:20:15.272Z,40.99
2023-03-08T00:21:15.269Z,40.98
2023-03-08T00:22:15.244Z,40.75
2023-03-08T00:23:15.245Z,41.00
2023-03-08T00:24:15.217Z,40.77
2023-03-08T00:25:15.207Z,40.52
2023-03-08T00:26:15.184Z,40.67
2023-03-08T00:27:15.164Z,40.53
2023-03-08T00:28:15.156Z,40.38
2023-03-08T00:29:15.196Z,40.10
2023-03-08T00:30:15.130Z,40.00
2023-03-08T00:31:15.142Z,39.80
2023-03-08T00:32:15.110Z,39.74
2023-03-08T00:33:15.078Z,40.10
2023-03-08T00:34:15.058Z,39.88
2023-03-08T00:35:15.043Z,39.95
2023-03-08T00:36:15.031Z,39.96
2023-03-08T00:37:15.014Z,39.93
2023-03-08T00:38:14.997Z,39.79
2023-03-08T00:39:14.983Z,39.82
2023-03-08T00:40:14.972Z,39.63
2023-03-08T00:41:14.954Z,39.56
2023-03-08T00:42:14.935Z,39.59
2023-03-08T00:43:14.923Z,39.65
2023-03-08T00:45:14.893Z,39.69
2023-03-08T00:59:14.637Z,38.57
2023-03-08T01:00:14.616Z,37.71
2023-03-08T01:01:14.681Z,37.71
2023-03-08T01:02:14.578Z,38.14
2023-03-08T01:03:14.563Z,37.96
2023-03-08T01:04:14.570Z,37.71
2023-03-08T01:05:14.534Z,37.70
2023-03-08T01:06:14.513Z,37.34
2023-03-08T01:07:14.486Z,37.48
2023-03-08T01:08:14.476Z,37.54
2023-03-08T01:09:14.465Z,37.59
2023-03-08T01:10:14.445Z,37.63
2023-03-08T01:11:14.422Z,37.66
2023-03-08T01:12:14.412Z,37.74
2023-03-08T01:13:14.391Z,37.55
2023-03-08T01:14:14.374Z,37.56
2023-03-08T01:15:14.357Z,37.67
2023-03-08T01:16:14.348Z,37.28
2023-03-08T01:17:14.321Z,36.69
2023-03-08T01:18:14.317Z,37.09
2023-03-08T01:19:14.295Z,37.17
2023-03-08T01:20:14.283Z,37.16
2023-03-08T01:21:14.257Z,36.75
2023-03-08T01:22:14.235Z,36.55
2023-03-08T01:23:14.228Z,36.08
2023-03-08T01:24:14.205Z,36.34
2023-03-08T01:25:14.188Z,36.46
2023-03-08T01:26:14.169Z,35.98
2023-03-08T01:27:14.157Z,36.12
2023-03-08T01:28:14.129Z,35.64
2023-03-08T01:29:14.122Z,35.98
2023-03-08T01:30:14.100Z,35.85
2023-03-08T01:31:14.115Z,35.70
2023-03-08T01:32:14.109Z,35.44
2023-03-08T01:33:14.047Z,35.48
2023-03-08T01:34:14.022Z,35.39
2023-03-08T01:48:13.783Z,34.12
2023-03-08T01:49:13.766Z,33.92
2023-03-08T01:50:13.755Z,33.59
2023-03-08T01:51:13.741Z,33.64
2023-03-08T01:52:13.717Z,33.66
2023-03-08T01:53:13.688Z,33.81
2023-03-08T01:54:13.668Z,33.98
2023-03-08T01:55:13.672Z,33.68
2023-03-08T01:56:13.660Z,33.79
2023-03-08T01:57:13.628Z,33.95
2023-03-08T01:58:13.609Z,33.55
2023-03-08T01:59:13.600Z,33.05
2023-03-08T02:00:13.581Z,33.46
2023-03-08T02:01:13.623Z,33.24
2023-03-08T02:02:13.547Z,33.16
2023-03-08T02:03:13.529Z,32.99
2023-03-08T02:04:13.506Z,32.74
2023-03-08T02:05:13.488Z,33.27
2023-03-08T02:06:13.474Z,32.53
2023-03-08T02:07:13.453Z,32.64
2023-03-08T02:08:13.439Z,32.81
2023-03-08T02:09:13.412Z,32.63
2023-03-08T02:10:13.408Z,32.28
2023-03-08T02:11:13.375Z,32.14
2023-03-08T02:12:13.392Z,32.19
2023-03-08T02:13:13.355Z,32.02
2023-03-08T02:14:13.358Z,31.79
2023-03-08T02:15:13.333Z,31.55
2023-03-08T02:16:13.323Z,31.90
2023-03-08T02:17:13.333Z,31.84
2023-03-08T02:18:13.304Z,32.08
2023-03-08T02:19:13.293Z,31.36
2023-03-08T02:20:13.289Z,31.46
2023-03-08T02:21:13.273Z,31.53
2023-03-08T02:22:13.261Z,31.20
2023-03-08T02:23:13.257Z,31.39
2023-03-08T02:24:13.233Z,31.28
2023-03-08T02:25:13.210Z,31.06
2023-03-08T02:26:13.208Z,31.15
2023-03-08T02:27:13.201Z,31.18
2023-03-08T02:28:13.177Z,30.95
2023-03-08T03:11:12.530Z,27.81
2023-03-08T03:12:12.499Z,27.83
2023-03-08T03:13:12.489Z,27.61
2023-03-08T03:14:12.472Z,28.00
2023-03-08T03:15:12.440Z,27.50
2023-03-08T03:16:12.492Z,27.19
2023-03-08T03:17:12.416Z,27.58
2023-03-08T03:18:12.391Z,27.48
2023-03-08T03:19:12.369Z,27.70
2023-03-08T03:20:12.352Z,27.26
2023-03-08T03:21:12.430Z,27.11
2023-03-08T03:22:12.314Z,27.11
2023-03-08T03:23:12.310Z,27.12
2023-03-08T03:24:12.285Z,27.48
2023-03-08T03:25:12.275Z,27.16
2023-03-08T03:26:12.263Z,26.84
2023-03-08T03:27:12.244Z,26.77
2023-03-08T03:28:12.231Z,26.58
2023-03-08T03:29:12.222Z,26.45
2023-03-08T03:30:12.193Z,26.72
2023-03-08T03:31:12.231Z,26.53
2023-03-08T03:32:12.240Z,26.49
2023-03-08T03:33:12.152Z,26.32
2023-03-08T03:34:12.129Z,26.37
2023-03-08T03:35:12.113Z,26.50
2023-03-08T03:36:12.092Z,26.01
2023-03-08T03:37:12.080Z,25.99
2023-03-08T03:38:12.089Z,26.18
2023-03-08T03:39:12.051Z,25.95
2023-03-08T03:40:12.025Z,25.96
2023-03-08T03:41:12.018Z,25.92
2023-03-08T03:42:11.987Z,25.43
2023-03-08T03:43:11.973Z,25.43
2023-03-08T03:44:11.965Z,25.49
2023-03-08T03:45:11.943Z,25.63
2023-03-08T03:46:11.951Z,25.79
2023-03-08T03:47:11.953Z,25.52
2023-03-08T03:48:11.909Z,25.51
2023-03-08T03:49:11.900Z,25.31
2023-03-08T03:50:11.879Z,25.24
2023-03-08T03:51:11.863Z,25.19
2023-03-08T03:52:11.872Z,25.06
2023-03-08T03:53:11.943Z,25.34
2023-03-08T03:54:11.835Z,25.17
2023-03-08T03:55:11.809Z,24.87
2023-03-08T03:56:11.792Z,24.91
2023-03-08T03:57:11.840Z,24.96
2023-03-08T03:58:11.757Z,25.00
2023-03-08T03:59:11.750Z,24.98
2023-03-08T04:00:11.725Z,24.98
2023-03-08T04:01:11.732Z,24.85
2023-03-08T04:02:11.698Z,24.87
2023-03-08T04:03:11.764Z,24.58
2023-03-08T04:04:11.683Z,24.65
2023-03-08T04:05:11.682Z,24.61
2023-03-08T04:06:11.650Z,24.64
2023-03-08T04:07:11.644Z,24.66
2023-03-08T04:08:11.627Z,24.72
2023-03-08T04:09:11.614Z,24.65
2023-03-08T04:10:11.600Z,24.67
2023-03-08T04:11:11.580Z,24.76
2023-03-08T04:12:11.567Z,24.72
2023-03-08T04:13:11.546Z,24.66
2023-03-08T04:14:11.538Z,24.75
2023-03-08T04:15:11.538Z,24.52
2023-03-08T04:16:11.643Z,24.55
2023-03-08T04:17:11.489Z,24.09
2023-03-08T04:18:11.472Z,24.03
2023-03-08T04:19:11.464Z,24.23
2023-03-08T04:20:11.427Z,24.22
2023-03-08T04:21:11.416Z,24.11
2023-03-08T04:22:11.406Z,24.01
2023-03-08T04:23:11.390Z,23.86
2023-03-08T04:24:11.381Z,23.47
2023-03-08T04:25:11.361Z,23.60
2023-03-08T04:26:11.333Z,23.68
2023-03-08T04:27:11.329Z,23.60
2023-03-08T04:28:11.319Z,23.66
2023-03-08T04:29:11.335Z,23.57
2023-03-08T04:30:11.289Z,23.26
2023-03-08T04:31:11.296Z,23.14
2023-03-08T04:32:11.282Z,23.30
2023-03-08T04:33:11.260Z,23.15
2023-03-08T04:34:11.250Z,23.04
2023-03-08T04:35:11.250Z,23.24
2023-03-08T04:36:11.237Z,22.93
2023-03-08T04:37:11.216Z,22.84
2023-03-08T04:38:11.202Z,23.01
2023-03-08T04:39:11.206Z,22.65
2023-03-08T04:40:11.182Z,22.85
2023-03-08T04:41:11.172Z,22.50
2023-03-08T04:42:11.154Z,22.61
2023-03-08T04:43:11.126Z,22.48
2023-03-08T04:44:11.108Z,22.20
2023-03-08T04:45:11.118Z,22.42
2023-03-08T04:46:11.132Z,22.35
2023-03-08T04:47:11.082Z,22.27
2023-03-08T04:48:11.070Z,22.12
2023-03-08T04:49:11.046Z,22.02
2023-03-08T04:50:11.038Z,21.95
2023-03-08T04:51:11.019Z,22.07
2023-03-08T04:52:11.021Z,22.12
2023-03-08T04:53:11.000Z,21.86
2023-03-08T04:54:10.994Z,21.89
2023-03-08T04:55:10.970Z,21.59
2023-03-08T04:56:10.952Z,21.93
2023-03-08T04:57:10.974Z,21.81
2023-03-08T04:58:10.926Z,21.62
2023-03-08T04:59:10.911Z,21.77
2023-03-08T05:00:10.897Z,21.39
2023-03-08T05:01:10.892Z,21.63
2023-03-08T05:02:10.892Z,21.61
2023-03-08T05:03:10.866Z,21.35
2023-03-08T05:04:10.847Z,21.26
2023-03-08T05:05:10.855Z,21.12
2023-03-08T05:06:10.809Z,21.09
2023-03-08T05:07:10.805Z,21.17
2023-03-08T05:08:10.792Z,21.12
2023-03-08T05:09:10.772Z,21.20
2023-03-08T05:10:10.774Z,20.76
2023-03-08T05:11:10.761Z,20.74
2023-03-08T05:12:10.752Z,20.78
2023-03-08T05:13:10.741Z,20.71
2023-03-08T05:14:10.729Z,20.69
2023-03-08T05:15:10.720Z,20.94
2023-03-08T05:16:10.731Z,20.60
2023-03-08T05:17:10.681Z,20.64
2023-03-08T05:18:10.676Z,20.84
2023-03-08T05:19:10.640Z,20.58
2023-03-08T05:20:10.624Z,20.42
2023-03-08T05:21:10.604Z,20.41
2023-03-08T05:22:10.618Z,20.24
2023-03-08T05:23:10.589Z,20.29
2023-03-08T05:24:10.565Z,20.28
2023-03-08T05:25:10.579Z,20.11
2023-03-08T05:26:10.597Z,20.05
2023-03-08T05:27:10.533Z,20.03
2023-03-08T05:28:10.509Z,19.92
2023-03-08T05:29:10.503Z,19.92
2023-03-08T05:30:10.485Z,20.10
2023-03-08T05:31:10.523Z,20.05
2023-03-08T05:32:10.463Z,19.89
2023-03-08T05:33:10.440Z,19.61
2023-03-08T05:34:10.421Z,19.59
2023-03-08T05:35:10.423Z,19.66
2023-03-08T05:36:10.420Z,19.51
2023-03-08T05:37:10.404Z,19.67
2023-03-08T05:38:10.380Z,19.45
2023-03-08T05:39:10.356Z,19.49
2023-03-08T05:40:10.349Z,19.55
2023-03-08T05:41:10.332Z,19.58
2023-03-08T05:42:10.323Z,19.62
2023-03-08T05:43:10.320Z,19.63
2023-03-08T05:44:10.318Z,19.55
2023-03-08T05:45:10.332Z,19.69
2023-03-08T05:46:10.336Z,19.33
2023-03-08T05:47:10.261Z,19.38
2023-03-08T05:48:10.240Z,19.24
2023-03-08T05:49:10.229Z,19.29
2023-03-08T05:50:10.247Z,19.06
2023-03-08T05:51:10.202Z,19.39
2023-03-08T05:52:10.179Z,19.13
2023-03-08T05:53:10.167Z,19.08
2023-03-08T05:54:10.154Z,18.97
2023-03-08T05:55:10.162Z,18.86
2023-03-08T05:56:10.122Z,19.06
2023-03-08T05:57:10.108Z,18.80
2023-03-08T05:58:10.093Z,18.73
2023-03-08T05:59:10.070Z,18.81
2023-03-08T06:00:10.059Z,18.79
2023-03-08T06:01:10.042Z,18.53
2023-03-08T06:02:10.108Z,18.56
2023-03-08T06:03:10.014Z,18.50
2023-03-08T06:04:09.978Z,18.36
2023-03-08T06:05:09.984Z,18.41
2023-03-08T06:06:09.954Z,18.64
2023-03-08T06:07:09.954Z,18.56
2023-03-08T06:08:09.912Z,18.34
2023-03-08T06:09:09.880Z,18.23
2023-03-08T06:10:09.863Z,18.36
2023-03-08T06:11:09.862Z,18.13
2023-03-08T06:12:09.850Z,18.00
2023-03-08T06:13:09.825Z,18.14
2023-03-08T06:14:11.642Z,17.95
2023-03-08T06:15:09.831Z,18.35
2023-03-08T06:16:09.789Z,17.96
2023-03-08T06:17:09.769Z,17.85
2023-03-08T06:18:09.746Z,17.83
2023-03-08T06:19:09.753Z,17.67
2023-03-08T06:20:09.718Z,18.00
2023-03-08T06:21:09.722Z,17.73
2023-03-08T06:22:09.691Z,17.59
2023-03-08T06:23:09.678Z,17.46
2023-03-08T06:24:09.657Z,17.54
2023-03-08T06:25:09.659Z,17.47
2023-03-08T06:26:09.637Z,17.33
2023-03-08T06:27:09.623Z,17.32
2023-03-08T06:28:09.619Z,17.36
2023-03-08T06:29:09.592Z,17.39
2023-03-08T06:30:09.577Z,16.52
2023-03-08T06:31:09.728Z,14.96
2023-03-08T06:32:09.635Z,13.91
2023-03-08T06:33:09.551Z,7.39
2023-03-08T06:34:09.515Z,8.78
2023-03-08T06:35:09.504Z,10.33
2023-03-08T06:36:09.482Z,11.10
2023-03-08T06:37:09.466Z,12.03
2023-03-08T06:38:09.428Z,11.92
2023-03-08T06:39:09.416Z,11.88
2023-03-08T06:40:09.403Z,11.45
2023-03-08T06:41:09.399Z,11.47
2023-03-08T06:42:09.371Z,11.93
2023-03-08T06:43:09.356Z,10.99
2023-03-08T06:44:09.350Z,9.95
2023-03-08T06:45:09.316Z,10.67
2023-03-08T06:46:09.363Z,8.71
2023-03-08T06:47:09.286Z,7.16
2023-03-08T06:48:09.279Z,4.54
2023-03-08T06:49:09.278Z,3.06
2023-03-08T06:50:09.272Z,2.74
2023-03-08T06:51:09.248Z,2.58
2023-03-08T06:52:09.222Z,2.86
2023-03-08T06:53:09.234Z,3.28
2023-03-08T06:54:09.248Z,4.16
2023-03-08T06:55:09.190Z,4.75
2023-03-08T06:56:09.153Z,5.29
2023-03-08T06:57:09.554Z,5.04
2023-03-08T06:58:09.116Z,5.91
2023-03-08T06:59:09.129Z,6.46
2023-03-08T07:00:09.081Z,7.10
2023-03-08T07:01:09.100Z,7.25
2023-03-08T07:02:09.057Z,7.98
2023-03-08T07:03:09.027Z,8.46
2023-03-08T07:04:09.089Z,8.86
2023-03-08T07:05:09.000Z,8.89
2023-03-08T07:06:09.009Z,9.07
2023-03-08T07:07:09.010Z,9.28
2023-03-08T07:08:08.932Z,10.31
2023-03-08T07:09:08.913Z,11.44
2023-03-08T07:10:08.901Z,12.16
2023-03-08T07:11:08.917Z,12.54
2023-03-08T07:12:08.965Z,12.98
2023-03-08T07:13:08.833Z,12.76
2023-03-08T07:14:08.813Z,12.22
2023-03-08T07:15:08.795Z,12.85
2023-03-08T07:16:08.847Z,13.10
2023-03-08T07:17:08.808Z,13.46
2023-03-08T07:18:12.382Z,13.44
2023-03-08T07:19:08.713Z,13.46
2023-03-08T07:20:08.707Z,13.49
2023-03-08T07:21:08.728Z,11.58
2023-03-08T07:22:08.716Z,11.89
2023-03-08T07:23:09.048Z,12.89
2023-03-08T07:24:08.641Z,9.78
2023-03-08T07:25:08.619Z,9.76
2023-03-08T07:26:08.596Z,12.06
2023-03-08T07:27:08.595Z,8.10
2023-03-08T07:28:08.551Z,8.65
2023-03-08T07:29:08.536Z,9.87
2023-03-08T07:30:08.519Z,9.61
2023-03-08T07:31:08.497Z,11.65
2023-03-08T07:32:08.727Z,10.44
2023-03-08T07:33:08.530Z,10.60
2023-03-08T07:34:08.462Z,8.29
2023-03-08T07:35:08.433Z,5.11
2023-03-08T07:36:08.520Z,7.71
2023-03-08T07:37:08.471Z,8.23
2023-03-08T07:38:08.438Z,7.44
2023-03-08T07:39:08.390Z,4.75
2023-03-08T07:40:08.339Z,5.62
2023-03-08T07:41:08.310Z,3.85
2023-03-08T07:42:08.318Z,1.89
2023-03-08T07:43:08.306Z,1.38
2023-03-08T07:44:08.270Z,1.17
2023-03-08T07:45:08.250Z,1.23
2023-03-08T07:46:08.271Z,1.09
2023-03-08T07:47:08.225Z,1.17
2023-03-08T07:48:08.222Z,1.70
2023-03-08T07:49:08.187Z,1.97
2023-03-08T07:50:08.186Z,1.42
2023-03-08T07:51:08.226Z,1.35
2023-03-08T07:52:08.132Z,0.79
2023-03-08T07:53:08.151Z,1.06
2023-03-08T07:54:08.095Z,1.45
2023-03-08T07:55:08.062Z,1.45
2023-03-08T07:56:08.031Z,1.45
2023-03-08T07:57:08.025Z,1.43
2023-03-08T07:58:07.999Z,1.51
2023-03-08T07:59:07.970Z,1.60
2023-03-08T08:00:07.973Z,1.44
2023-03-08T08:01:07.942Z,1.34
2023-03-08T08:02:07.942Z,1.30
2023-03-08T08:03:07.941Z,1.36
2023-03-08T08:04:08.025Z,1.39
2023-03-08T08:05:07.927Z,1.51
2023-03-08T08:06:07.864Z,0.85
2023-03-08T08:07:07.845Z,1.35
2023-03-08T08:08:07.863Z,1.37
2023-03-08T08:09:07.816Z,1.43
2023-03-08T09:06:06.786Z,3.28
2023-03-08T09:07:06.748Z,3.59
2023-03-08T09:08:06.749Z,3.76
2023-03-08T09:09:06.715Z,3.85
2023-03-08T09:10:07.001Z,4.24
2023-03-08T09:11:06.678Z,4.48
2023-03-08T09:12:06.650Z,5.23
2023-03-08T09:13:06.669Z,5.76
2023-03-08T09:14:06.630Z,5.87
2023-03-08T09:15:06.625Z,5.76
2023-03-08T09:16:06.619Z,5.59
2023-03-08T09:17:06.572Z,5.24
2023-03-08T09:18:06.555Z,5.31
2023-03-08T09:19:06.568Z,5.26
2023-03-08T09:20:06.546Z,5.59
2023-03-08T09:21:06.502Z,5.38
2023-03-08T09:22:06.485Z,4.84
2023-03-08T09:23:06.490Z,4.46
2023-03-08T09:24:06.482Z,4.53
2023-03-08T09:25:06.437Z,4.70
2023-03-08T09:26:06.438Z,4.76
2023-03-08T09:27:06.419Z,4.88
2023-03-08T09:28:06.390Z,4.88
2023-03-08T09:29:06.373Z,4.74
2023-03-08T09:30:06.359Z,4.45
2023-03-08T09:31:06.329Z,1.55
2023-03-08T09:32:06.467Z,1.32
2023-03-08T09:33:06.300Z,1.16
2023-03-08T09:34:06.294Z,1.46
2023-03-08T09:35:06.284Z,0.64
2023-03-08T09:36:06.233Z,0.48
2023-03-08T09:37:06.230Z,0.52
2023-03-08T09:38:06.211Z,0.43
2023-03-08T09:39:06.194Z,0.53
2023-03-08T09:40:06.202Z,0.37
2023-03-08T09:41:06.161Z,0.34
2023-03-08T09:42:06.146Z,0.34
2023-03-08T09:43:06.142Z,0.34
2023-03-08T09:44:06.123Z,0.53
2023-03-08T09:45:07.442Z,0.73
2023-03-08T09:46:06.126Z,0.48
2023-03-08T09:47:06.080Z,0.38
2023-03-08T09:48:06.145Z,0.34
2023-03-08T09:49:06.096Z,0.38
2023-03-08T09:50:06.011Z,0.40
2023-03-08T09:51:05.979Z,0.65
2023-03-08T09:52:05.974Z,0.76
2023-03-08T09:53:05.951Z,0.63
2023-03-08T09:54:05.942Z,0.50
2023-03-08T09:55:05.960Z,0.53
2023-03-08T09:56:05.914Z,0.88
2023-03-08T09:57:05.969Z,1.59
2023-03-08T09:58:05.956Z,2.34
2023-03-08T09:59:06.009Z,2.35
2023-03-08T10:00:05.866Z,0.88
2023-03-08T10:01:06.005Z,0.61
2023-03-08T10:02:05.836Z,0.52
2023-03-08T10:03:05.888Z,0.49
2023-03-08T10:04:05.870Z,0.50
2023-03-08T10:05:13.342Z,0.44
2023-03-08T10:06:06.815Z,0.34
2023-03-08T10:07:05.790Z,0.39
2023-03-08T10:08:05.810Z,0.49
2023-03-08T10:09:05.796Z,0.57
2023-03-08T10:10:05.775Z,1.58
2023-03-08T10:11:05.764Z,0.46
2023-03-08T10:12:11.895Z,0.59
2023-03-08T10:13:06.758Z,0.47
2023-03-08T10:14:05.787Z,0.63
2023-03-08T10:15:05.732Z,1.11
2023-03-08T10:16:05.737Z,2.66
2023-03-08T10:17:05.768Z,9.00
2023-03-08T10:18:05.717Z,10.85
2023-03-08T10:19:05.725Z,13.94
2023-03-08T10:20:05.698Z,15.13
2023-03-08T10:21:05.680Z,15.20
2023-03-08T10:22:05.660Z,15.28
2023-03-08T10:23:05.648Z,16.38
2023-03-08T10:24:05.644Z,19.05
2023-03-08T10:25:05.626Z,24.13
2023-03-08T10:26:05.619Z,33.64
2023-03-08T10:27:05.595Z,15.59
2023-03-08T10:28:05.587Z,17.63
2023-03-08T10:29:05.568Z,22.26
2023-03-08T10:30:05.587Z,30.46
2023-03-08T10:31:05.612Z,49.68
2023-03-08T10:32:05.583Z,56.92
2023-03-08T10:33:05.542Z,55.96
2023-03-08T10:34:05.529Z,58.26
2023-03-08T10:35:05.518Z,35.90
2023-03-08T10:36:05.557Z,30.92
2023-03-08T10:37:05.513Z,31.30
2023-03-08T10:38:05.452Z,25.26
2023-03-08T10:39:05.439Z,14.32
2023-03-08T10:40:05.471Z,23.76
2023-03-08T10:41:05.426Z,20.58
2023-03-08T10:42:05.445Z,21.74
2023-03-08T10:43:05.396Z,12.74
2023-03-08T10:44:05.408Z,11.65
2023-03-08T10:45:05.378Z,13.31
2023-03-08T10:46:05.398Z,13.15
2023-03-08T10:47:05.380Z,15.87
2023-03-08T10:48:05.338Z,27.70
2023-03-08T10:49:05.330Z,29.06
2023-03-08T10:50:05.338Z,17.41
2023-03-08T10:51:05.530Z,23.46
2023-03-08T10:52:05.298Z,19.28
2023-03-08T10:53:05.284Z,20.44
2023-03-08T10:54:05.272Z,18.09
2023-03-08T10:55:05.381Z,15.39
2023-03-08T10:56:05.280Z,18.58
2023-03-08T10:57:05.240Z,13.98
2023-03-08T10:58:05.224Z,9.21
2023-03-08T10:59:05.195Z,9.18
2023-03-08T11:00:05.173Z,5.82
2023-03-08T11:01:05.169Z,3.92
2023-03-08T11:02:05.196Z,4.54
2023-03-08T11:03:05.143Z,5.45
2023-03-08T11:04:05.117Z,2.86
2023-03-08T11:05:05.150Z,2.77
2023-03-08T11:06:05.096Z,2.83
2023-03-08T11:07:05.062Z,2.46
2023-03-08T11:08:05.083Z,2.09
2023-03-08T11:09:05.038Z,2.64
2023-03-08T11:10:05.030Z,2.57
2023-03-08T11:11:05.013Z,2.48
2023-03-08T11:12:04.987Z,2.20
2023-03-08T11:13:04.954Z,1.85
2023-03-08T11:14:04.938Z,2.17
2023-03-08T11:15:04.922Z,2.39
2023-03-08T11:16:04.974Z,2.02
2023-03-08T11:17:04.871Z,3.11
2023-03-08T11:18:04.841Z,2.64
2023-03-08T11:19:05.507Z,2.41
2023-03-08T11:20:04.828Z,2.99
2023-03-08T11:21:04.803Z,3.91
2023-03-08T11:22:04.779Z,3.34
2023-03-08T11:23:04.765Z,2.79
2023-03-08T11:24:04.759Z,2.03
2023-03-08T11:25:04.768Z,1.86
2023-03-08T11:26:04.725Z,1.87
2023-03-08T11:27:04.721Z,2.01
2023-03-08T11:28:04.689Z,2.04
2023-03-08T11:29:04.689Z,2.40
2023-03-08T11:30:04.641Z,4.17
2023-03-08T11:31:04.650Z,2.77
2023-03-08T11:32:04.604Z,3.84
2023-03-08T11:33:04.727Z,4.68
2023-03-08T11:34:04.576Z,3.66
2023-03-08T11:35:04.548Z,3.01
2023-03-08T11:36:04.552Z,2.98
2023-03-08T11:37:04.490Z,3.71
2023-03-08T11:38:04.520Z,2.28
2023-03-08T11:39:04.462Z,2.57
2023-03-08T11:40:04.452Z,2.97
2023-03-08T11:41:04.445Z,2.03
2023-03-08T11:42:04.471Z,1.93
2023-03-08T11:43:04.411Z,1.89
2023-03-08T11:44:04.398Z,1.81
2023-03-08T11:45:04.370Z,1.74
2023-03-08T11:46:04.363Z,2.13
2023-03-08T11:47:04.346Z,2.15
2023-03-08T11:48:04.386Z,1.82
2023-03-08T11:49:04.360Z,2.50
2023-03-08T11:50:04.304Z,3.17
2023-03-08T11:51:04.292Z,3.43
2023-03-08T11:52:04.279Z,3.50
2023-03-08T11:53:04.265Z,2.26
2023-03-08T11:54:04.246Z,4.31
2023-03-08T11:55:04.256Z,2.11
2023-03-08T11:56:04.226Z,1.98
2023-03-08T11:57:04.183Z,2.40
2023-03-08T11:58:04.181Z,2.39
2023-03-08T11:59:04.153Z,2.78
2023-03-08T12:00:04.146Z,2.81
2023-03-08T12:01:04.137Z,1.90
2023-03-08T12:02:04.132Z,1.80
2023-03-08T12:03:04.100Z,2.00
2023-03-08T12:04:04.492Z,2.31
2023-03-08T12:05:04.109Z,1.98
2023-03-08T12:06:04.155Z,1.37
2023-03-08T12:07:04.238Z,1.62
2023-03-08T12:08:04.099Z,1.41
2023-03-08T12:09:04.080Z,1.58
2023-03-08T12:10:04.031Z,1.75
2023-03-08T12:11:03.961Z,2.18
2023-03-08T12:12:03.928Z,1.40
2023-03-08T12:13:03.897Z,1.38
2023-03-08T12:14:03.901Z,1.57
2023-03-08T12:15:03.904Z,1.09
2023-03-08T12:16:03.897Z,1.22
2023-03-08T12:17:03.945Z,1.32
2023-03-08T12:18:03.799Z,1.22
2023-03-08T12:19:03.777Z,1.14
2023-03-08T12:20:03.772Z,1.14
2023-03-08T12:21:03.743Z,1.23
2023-03-08T12:22:03.720Z,1.10
2023-03-08T12:23:03.752Z,1.14
2023-03-08T12:24:04.060Z,1.57
2023-03-08T12:25:03.670Z,0.99
2023-03-08T12:26:03.650Z,0.91
2023-03-08T12:27:03.648Z,0.88
2023-03-08T12:28:03.683Z,1.01
2023-03-08T12:29:03.616Z,1.04
2023-03-08T12:30:03.614Z,0.95
2023-03-08T12:31:03.667Z,0.92
2023-03-08T12:32:03.608Z,1.06
2023-03-08T12:33:03.729Z,1.02
2023-03-08T12:34:03.548Z,0.86
2023-03-08T12:35:03.530Z,1.00
2023-03-08T12:36:03.677Z,1.02
2023-03-08T12:37:03.522Z,1.12
2023-03-08T12:38:03.556Z,0.94
2023-03-08T12:39:03.534Z,0.95
2023-03-08T12:40:03.470Z,0.88
2023-03-08T12:41:03.440Z,1.06
2023-03-08T12:42:03.444Z,0.92
2023-03-08T12:43:03.409Z,0.89
2023-03-08T12:44:03.385Z,1.20
2023-03-08T12:45:03.386Z,1.10
2023-03-08T12:46:03.426Z,0.89
2023-03-08T12:47:04.493Z,0.92
2023-03-08T12:48:03.456Z,1.13
2023-03-08T12:49:03.331Z,1.58
2023-03-08T12:50:03.321Z,2.19
2023-03-08T12:51:03.296Z,2.77
2023-03-08T12:52:03.287Z,3.08
2023-03-08T12:53:03.272Z,3.56
2023-03-08T12:54:03.253Z,4.09
2023-03-08T12:55:03.235Z,4.83
2023-03-08T12:56:03.225Z,5.38
2023-03-08T12:57:03.200Z,6.15
2023-03-08T12:58:03.211Z,5.87
2023-03-08T12:59:03.161Z,6.74
2023-03-08T13:00:03.134Z,7.82
2023-03-08T13:01:03.144Z,8.36
2023-03-08T13:02:03.110Z,8.24
2023-03-08T13:03:03.088Z,9.53
2023-03-08T13:04:03.134Z,10.04
2023-03-08T13:05:03.101Z,9.59
2023-03-08T13:06:03.037Z,10.46
2023-03-08T13:07:03.016Z,10.53
2023-03-08T13:08:02.980Z,12.22
2023-03-08T13:09:02.972Z,12.03
2023-03-08T13:10:02.943Z,13.84
2023-03-08T13:11:02.947Z,14.68
2023-03-08T13:12:02.921Z,14.97
2023-03-08T13:13:02.920Z,15.06
2023-03-08T13:14:02.887Z,13.91
2023-03-08T13:15:02.865Z,14.49
2023-03-08T13:16:02.820Z,16.53
2023-03-08T13:17:02.867Z,16.86
2023-03-08T13:18:02.784Z,16.63
2023-03-08T13:19:02.778Z,17.95
2023-03-08T13:20:02.824Z,18.01
2023-03-08T13:21:02.726Z,18.29
2023-03-08T13:22:02.732Z,18.13
2023-03-08T13:23:02.692Z,19.20
2023-03-08T13:24:02.678Z,19.76
2023-03-08T13:25:02.683Z,20.60
2023-03-08T13:26:02.686Z,20.50
2023-03-08T13:27:02.639Z,23.57
2023-03-08T13:28:02.620Z,23.58
2023-03-08T13:29:02.593Z,23.67
2023-03-08T13:30:02.604Z,23.86
2023-03-08T13:31:02.617Z,23.95
2023-03-08T13:32:02.532Z,25.74
2023-03-08T13:33:02.502Z,28.30
2023-03-08T13:34:02.473Z,29.12
2023-03-08T13:35:02.483Z,30.51
2023-03-08T13:36:02.476Z,31.11
2023-03-08T13:37:02.423Z,28.46
2023-03-08T13:38:02.409Z,28.27
2023-03-08T13:39:02.392Z,29.89
2023-03-08T13:40:02.351Z,31.33
2023-03-08T13:41:02.341Z,32.40
2023-03-08T13:42:02.312Z,35.75
2023-03-08T13:43:02.316Z,41.03
2023-03-08T13:44:02.263Z,44.81
2023-03-08T13:45:02.263Z,50.12
2023-03-08T13:46:02.256Z,57.72
2023-03-08T13:47:02.210Z,64.80
2023-03-08T13:48:02.180Z,72.46
2023-03-08T13:49:02.160Z,78.37
2023-03-08T13:50:02.120Z,83.99
2023-03-08T13:51:02.107Z,89.81
2023-03-08T13:52:02.084Z,96.30
2023-03-08T13:53:02.066Z,96.81
2023-03-08T13:54:02.024Z,99.13
2023-03-08T13:55:02.095Z,104.90
2023-03-08T13:56:01.982Z,113.80
2023-03-08T13:57:02.000Z,123.22
2023-03-08T13:58:01.970Z,121.56
2023-03-08T13:59:01.965Z,127.60
2023-03-08T14:00:01.937Z,125.50
2023-03-08T14:01:02.420Z,125.68
2023-03-08T14:02:01.840Z,119.32
2023-03-08T14:03:01.876Z,115.12
2023-03-08T14:04:01.831Z,112.56
2023-03-08T14:05:01.830Z,106.49
2023-03-08T14:06:01.861Z,98.22
2023-03-08T14:07:01.722Z,95.29
2023-03-08T14:08:01.705Z,94.63
2023-03-08T14:09:01.682Z,96.06
2023-03-08T14:10:01.651Z,99.06
2023-03-08T14:11:01.678Z,102.40
2023-03-08T14:12:01.626Z,100.83
2023-03-08T14:13:01.579Z,90.22
2023-03-08T14:14:01.570Z,84.00
2023-03-08T14:15:01.570Z,85.06
2023-03-08T14:16:01.629Z,82.72
2023-03-08T14:17:01.521Z,78.30
2023-03-08T14:18:01.490Z,77.30
2023-03-08T14:19:01.492Z,70.84
2023-03-08T14:20:01.536Z,70.44
2023-03-08T14:21:01.432Z,69.47
2023-03-08T14:22:01.409Z,68.55
2023-03-08T14:23:01.414Z,70.57
2023-03-08T14:24:01.381Z,66.16
2023-03-08T14:25:01.323Z,63.55
2023-03-08T14:26:01.269Z,53.84
2023-03-08T14:27:01.367Z,63.42
2023-03-08T14:28:01.430Z,79.70
2023-03-08T14:29:01.232Z,45.36
2023-03-08T14:30:01.229Z,21.49
2023-03-08T14:31:01.292Z,25.57
2023-03-08T14:32:01.346Z,6.93
2023-03-08T14:33:01.346Z,9.40
2023-03-08T14:34:01.167Z,4.72
2023-03-08T14:35:01.159Z,4.34
2023-03-08T14:36:01.340Z,5.48
2023-03-08T14:37:01.352Z,10.79
2023-03-08T14:38:01.274Z,12.73
2023-03-08T14:39:01.134Z,15.14
2023-03-08T14:40:01.049Z,16.82
2023-03-08T14:41:01.090Z,15.69
2023-03-08T14:42:01.074Z,19.09
2023-03-08T14:43:00.985Z,19.35
2023-03-08T14:44:00.986Z,20.70
2023-03-08T14:45:00.953Z,20.76
2023-03-08T14:46:01.025Z,21.19
2023-03-08T14:47:00.895Z,21.94
2023-03-08T14:48:00.892Z,23.88
2023-03-08T14:49:00.891Z,26.63
2023-03-08T14:50:00.866Z,29.37
2023-03-08T14:51:00.829Z,28.40
2023-03-08T14:52:00.793Z,26.92
2023-03-08T14:53:00.790Z,28.32
2023-03-08T14:54:00.761Z,29.74
2023-03-08T14:55:00.753Z,31.74
2023-03-08T14:56:00.723Z,33.71
2023-03-08T14:57:00.700Z,34.36
2023-03-08T14:58:00.686Z,34.43
2023-03-08T14:59:00.685Z,34.14
2023-03-08T15:00:00.721Z,35.94
2023-03-08T15:01:00.637Z,36.05
2023-03-08T15:02:00.628Z,36.52
2023-03-08T15:03:00.735Z,37.73
2023-03-08T15:04:00.661Z,40.42
2023-03-08T15:05:00.588Z,44.07
2023-03-08T15:06:00.554Z,44.16
2023-03-08T15:07:00.686Z,46.29
2023-03-08T15:08:00.532Z,47.90
2023-03-08T15:09:00.486Z,48.70
2023-03-08T15:10:00.446Z,43.17
2023-03-08T15:11:00.438Z,39.37
2023-03-08T15:12:00.412Z,39.87